createdAt,value
2022-11-24T00:02:07.220Z,17.55
2022-11-24T00:04:54.852Z,17.50
2022-11-24T00:07:42.299Z,17.30
2022-11-24T00:10:29.676Z,19.10
2022-11-24T00:13:17.205Z,18.08
2022-11-24T00:16:09.233Z,17.33
2022-11-24T00:21:45.157Z,15.85
2022-11-24T00:24:32.914Z,16.75
2022-11-24T00:27:20.765Z,17.25
2022-11-24T00:30:09.962Z,15.68
2022-11-24T00:32:57.319Z,14.13
2022-11-24T00:35:46.640Z,15.60
2022-11-24T00:38:34.828Z,15.45
2022-11-24T00:41:23.107Z,15.10
2022-11-24T00:44:10.630Z,15.30
2022-11-24T00:46:58.204Z,14.05
2022-11-24T00:49:45.711Z,13.93
2022-11-24T00:52:33.235Z,13.95
2022-11-24T00:55:21.135Z,15.35
2022-11-24T00:58:10.235Z,14.73
2022-11-24T01:01:06.648Z,14.68
2022-11-24T01:03:57.388Z,15.95
2022-11-24T01:06:44.731Z,14.18
2022-11-24T01:09:32.094Z,14.52
2022-11-24T01:12:19.454Z,16.10
2022-11-24T01:15:07.405Z,14.63
2022-11-24T01:17:55.177Z,15.38
2022-11-24T01:20:42.572Z,15.13
2022-11-24T01:23:30.044Z,13.35
2022-11-24T01:26:25.977Z,13.23
2022-11-24T01:29:15.097Z,12.73
2022-11-24T01:32:03.775Z,13.35
2022-11-24T01:34:51.223Z,12.40
2022-11-24T01:37:38.586Z,12.88
2022-11-24T01:40:26.391Z,13.18
2022-11-24T01:43:19.824Z,13.45
2022-11-24T01:46:31.650Z,13.45
2022-11-24T01:49:24.684Z,12.15
2022-11-24T01:52:31.393Z,12.73
2022-11-24T01:55:23.081Z,13.43
2022-11-24T01:58:19.115Z,13.82
2022-11-24T02:01:06.668Z,13.40
2022-11-24T02:03:54.332Z,13.57
2022-11-24T02:06:43.978Z,13.40
2022-11-24T02:09:58.363Z,12.88
2022-11-24T02:12:48.911Z,13.27
2022-11-24T02:15:36.374Z,12.95
2022-11-24T02:18:23.827Z,14.32
2022-11-24T02:21:14.577Z,13.00
2022-11-24T02:24:24.177Z,12.63
2022-11-24T02:27:11.998Z,11.82
2022-11-24T02:30:00.253Z,13.68
2022-11-24T02:32:47.958Z,12.70
2022-11-24T02:35:35.417Z,12.25
2022-11-24T02:38:33.819Z,11.73
2022-11-24T02:41:24.424Z,10.85
2022-11-24T02:44:15.990Z,11.20
2022-11-24T02:47:09.205Z,10.80
2022-11-24T02:49:57.634Z,11.27
2022-11-24T02:52:45.240Z,11.55
2022-11-24T02:55:33.297Z,11.98
2022-11-24T02:58:21.286Z,10.70
2022-11-24T03:01:09.413Z,11.55
2022-11-24T03:03:56.896Z,12.60
2022-11-24T03:06:45.684Z,11.77
2022-11-24T03:09:33.099Z,11.52
2022-11-24T03:12:21.855Z,12.55
2022-11-24T03:15:09.736Z,11.15
2022-11-24T03:17:57.114Z,12.05
2022-11-24T03:20:44.587Z,11.82
2022-11-24T03:23:31.963Z,14.07
2022-11-24T03:26:23.262Z,13.93
2022-11-24T03:29:10.768Z,13.77
2022-11-24T03:31:58.955Z,11.52
2022-11-24T03:34:46.354Z,11.98
2022-11-24T03:37:33.755Z,12.02
2022-11-24T03:40:21.384Z,12.35
2022-11-24T03:43:09.036Z,11.95
2022-11-24T03:45:56.737Z,14.02
2022-11-24T03:48:44.137Z,13.05
2022-11-24T03:51:32.012Z,13.70
2022-11-24T03:54:19.487Z,13.32
2022-11-24T03:57:06.991Z,15.18
2022-11-24T03:59:54.501Z,13.82
2022-11-24T04:02:41.948Z,13.55
2022-11-24T04:05:29.667Z,12.98
2022-11-24T04:08:20.544Z,14.18
2022-11-24T04:11:07.953Z,14.65
2022-11-24T04:13:55.372Z,14.32
2022-11-24T04:16:43.310Z,15.27
2022-11-24T04:19:31.030Z,13.85
2022-11-24T04:22:18.817Z,14.13
2022-11-24T04:25:07.827Z,14.98
2022-11-24T04:27:56.139Z,14.48
2022-11-24T04:30:45.130Z,15.75
2022-11-24T04:33:33.245Z,14.68
2022-11-24T04:36:20.715Z,16.42
2022-11-24T04:39:19.796Z,16.73
2022-11-24T04:42:12.803Z,15.40
2022-11-24T04:45:00.674Z,14.68
2022-11-24T04:47:48.064Z,15.52
2022-11-24T04:50:37.506Z,14.60
2022-11-24T04:53:25.002Z,15.15
2022-11-24T04:56:12.722Z,15.25
2022-11-24T04:59:06.658Z,13.98
2022-11-24T05:01:55.516Z,16.67
2022-11-24T05:04:43.514Z,16.15
2022-11-24T05:07:30.969Z,16.35
2022-11-24T05:10:36.828Z,15.00
2022-11-24T05:13:24.216Z,15.70
2022-11-24T05:16:12.323Z,14.77
2022-11-24T05:18:59.892Z,16.25
2022-11-24T05:21:48.680Z,16.80
2022-11-24T05:24:36.277Z,16.10
2022-11-24T05:27:33.244Z,15.95
2022-11-24T05:30:20.588Z,16.80
2022-11-24T05:33:11.546Z,16.70
2022-11-24T05:36:08.926Z,14.65
2022-11-24T05:38:56.245Z,15.73
2022-11-24T05:41:43.603Z,18.00
2022-11-24T05:44:31.145Z,17.98
2022-11-24T05:47:19.121Z,14.98
2022-11-24T05:50:07.491Z,17.23
2022-11-24T05:52:55.018Z,18.65
2022-11-24T05:55:43.210Z,16.73
2022-11-24T05:58:30.591Z,18.08
2022-11-24T06:01:17.995Z,16.83
2022-11-24T06:04:05.515Z,15.63
2022-11-24T06:06:53.190Z,16.00
2022-11-24T06:09:42.042Z,16.23
2022-11-24T06:12:29.980Z,18.38
2022-11-24T06:15:17.811Z,16.48
2022-11-24T06:18:05.637Z,17.48
2022-11-24T06:21:09.899Z,16.85
2022-11-24T06:23:58.844Z,17.92
2022-11-24T06:26:46.225Z,16.80
2022-11-24T06:29:33.807Z,16.65
2022-11-24T06:32:21.350Z,15.90
2022-11-24T06:35:08.826Z,16.55
2022-11-24T06:37:56.118Z,17.00
2022-11-24T06:40:43.479Z,15.90
2022-11-24T06:43:30.927Z,18.02
2022-11-24T06:46:18.431Z,17.15
2022-11-24T06:49:05.851Z,18.63
2022-11-24T06:51:55.215Z,16.15
2022-11-24T06:54:43.535Z,17.27
2022-11-24T06:57:31.616Z,15.77
2022-11-24T07:00:19.246Z,17.23
2022-11-24T07:03:06.666Z,17.77
2022-11-24T07:05:58.326Z,17.70
2022-11-24T07:08:46.442Z,16.80
2022-11-24T07:11:33.959Z,17.15
2022-11-24T07:14:21.718Z,17.75
2022-11-24T07:17:09.004Z,19.27
2022-11-24T07:19:56.372Z,15.07
2022-11-24T07:22:43.828Z,17.05
2022-11-24T07:25:32.635Z,16.05
2022-11-24T07:28:20.000Z,16.17
2022-11-24T07:31:16.231Z,17.90
2022-11-24T07:34:04.025Z,17.33
2022-11-24T07:36:51.626Z,17.38
2022-11-24T07:39:39.082Z,17.83
2022-11-24T07:42:26.607Z,17.98
2022-11-24T07:45:14.202Z,18.23
2022-11-24T07:48:01.518Z,18.13
2022-11-24T07:50:55.307Z,17.05
2022-11-24T07:53:44.148Z,19.58
2022-11-24T07:56:31.447Z,17.58
2022-11-24T07:59:18.916Z,19.17
2022-11-24T08:02:06.568Z,18.98
2022-11-24T08:04:54.175Z,18.92
2022-11-24T08:07:41.589Z,19.63
2022-11-24T08:10:28.962Z,22.80
2022-11-24T08:13:16.506Z,20.05
2022-11-24T08:16:09.448Z,19.58
2022-11-24T08:18:57.072Z,20.00
2022-11-24T08:21:44.457Z,17.80
2022-11-24T08:24:32.201Z,19.15
2022-11-24T08:27:20.335Z,18.02
2022-11-24T08:30:08.908Z,19.23
2022-11-24T08:33:00.772Z,19.25
2022-11-24T08:35:48.197Z,19.40
2022-11-24T08:38:36.564Z,17.65
2022-11-24T08:41:25.080Z,19.02
2022-11-24T08:44:15.939Z,18.27
2022-11-24T08:47:03.611Z,17.65
2022-11-24T08:49:51.077Z,19.15
2022-11-24T08:52:38.627Z,20.35
2022-11-24T08:55:26.053Z,26.77
2022-11-24T08:58:14.927Z,21.17
2022-11-24T09:01:09.644Z,18.55
2022-11-24T09:03:58.287Z,19.27
2022-11-24T09:06:45.852Z,19.27
2022-11-24T09:09:33.209Z,17.83
2022-11-24T09:27:39.452Z,17.30
2022-11-24T09:30:27.517Z,18.30
2022-11-24T09:33:15.186Z,18.98
2022-11-24T09:36:03.924Z,19.75
2022-11-24T09:38:52.520Z,18.75
2022-11-24T09:41:57.224Z,18.88
2022-11-24T09:44:53.851Z,18.63
2022-11-24T09:48:03.340Z,17.70
2022-11-24T09:50:52.812Z,16.20
2022-11-24T09:53:53.207Z,16.67
2022-11-24T09:56:42.573Z,16.90
2022-11-24T09:59:31.924Z,15.77
2022-11-24T10:02:19.731Z,16.45
2022-11-24T10:05:08.246Z,16.92
2022-11-24T10:08:27.907Z,15.25
2022-11-24T10:11:22.461Z,14.50
2022-11-24T10:14:24.547Z,15.27
2022-11-24T10:20:42.358Z,13.27
2022-11-24T10:23:41.908Z,14.88
2022-11-24T10:26:47.222Z,16.10
2022-11-24T10:29:40.727Z,16.33
2022-11-24T10:32:39.575Z,15.68
2022-11-24T10:35:38.961Z,16.20
2022-11-24T10:38:51.676Z,16.08
2022-11-24T10:41:53.568Z,17.60
2022-11-24T10:44:42.715Z,16.27
2022-11-24T10:47:31.429Z,15.18
2022-11-24T10:50:29.232Z,18.10
2022-11-24T10:53:30.373Z,15.93
2022-11-24T10:56:18.870Z,16.20
2022-11-24T10:59:31.228Z,15.68
2022-11-24T11:02:28.068Z,15.07
2022-11-24T11:05:42.571Z,19.13
2022-11-24T11:08:32.570Z,14.07
2022-11-24T11:11:29.416Z,16.90
2022-11-24T11:14:52.633Z,14.75
2022-11-24T11:17:41.521Z,15.02
2022-11-24T11:20:33.768Z,14.57
2022-11-24T11:23:28.007Z,14.25
2022-11-24T11:26:25.076Z,14.90
2022-11-24T11:35:37.922Z,13.63
2022-11-24T11:38:36.374Z,13.10
2022-11-24T11:41:34.136Z,12.45
2022-11-24T11:44:48.577Z,12.82
2022-11-24T11:47:45.751Z,16.35
2022-11-24T11:54:25.477Z,12.93
2022-11-24T11:57:28.307Z,13.25
2022-11-24T12:00:27.903Z,15.25
2022-11-24T12:03:31.377Z,14.95
2022-11-24T12:06:39.363Z,13.63
2022-11-24T12:09:56.236Z,12.63
2022-11-24T12:13:14.713Z,11.52
2022-11-24T12:16:17.610Z,12.43
2022-11-24T12:19:11.498Z,12.07
2022-11-24T12:22:22.867Z,11.38
2022-11-24T12:25:28.705Z,11.83
2022-11-24T12:28:49.225Z,10.85
2022-11-24T12:32:24.939Z,10.60
2022-11-24T12:35:22.314Z,9.23
2022-11-24T12:38:23.883Z,9.00
2022-11-24T12:41:40.410Z,9.00
2022-11-24T12:44:57.298Z,8.60
2022-11-24T12:48:09.212Z,7.25
2022-11-24T12:51:01.948Z,8.25
2022-11-24T12:53:53.137Z,7.20
2022-11-24T12:56:57.759Z,7.38
2022-11-24T13:00:08.518Z,7.15
2022-11-24T13:03:05.728Z,8.43
2022-11-24T13:06:01.532Z,8.02
2022-11-24T13:08:49.682Z,8.65
2022-11-24T13:11:39.045Z,8.57
2022-11-24T13:14:37.817Z,8.02
2022-11-24T13:17:52.452Z,9.55
2022-11-24T13:20:46.261Z,8.50
2022-11-24T13:23:34.239Z,8.95
2022-11-24T13:26:53.014Z,10.00
2022-11-24T13:29:43.315Z,9.82
2022-11-24T13:32:47.660Z,10.43
2022-11-24T13:35:35.520Z,9.50
2022-11-24T13:38:54.662Z,10.00
2022-11-24T13:41:42.624Z,12.30
2022-11-24T13:44:43.860Z,14.48
2022-11-24T13:47:36.125Z,12.27
2022-11-24T13:50:45.849Z,12.45
2022-11-24T13:53:46.029Z,13.35
2022-11-24T13:56:33.622Z,13.25
2022-11-24T13:59:37.135Z,12.18
2022-11-24T14:02:24.899Z,11.27
2022-11-24T14:05:25.043Z,11.88
2022-11-24T14:08:24.555Z,10.82
2022-11-24T14:11:19.321Z,10.50
2022-11-24T14:14:26.799Z,10.60
